Etusivu
METAR-TAF:

METAR-TAF

Lentoasemat :

Kairo, Egypti

Kairon kansainvälinen lentoasema

Leveyspiiri: 30-08N, Pituuspiiri: 031-24E, korkeus merenpinnasta: 64 m

Tämänhetkinen sää

Tämä raportti tehtiin 23 minuuttia sitten, kello 07.00 UTC
Tuuli 2 kn idästä/koillisesta
Lämpötila 28°C
Kosteus 22%
Ilmanpaine 1014 hPa
Näkyvyys 10 km tai enemmän
ei pilviä alle 1500 m:ssä eikä cumulonimbus-pilviä

METAR: HECA 260700Z 06002KT CAVOK 28/04 Q1014 NOSIG

Aika: 09:23 (07:23 UTC)

Sääennuste

Tämä raportti tehtiin 2 tuntia ja 23 minuuttia sitten, kello 05.00 UTC
Ennuste voimassa 26. päivästä klo 06 UTC - 27. päivään klo 12 UTC
Tuuli 10 kn idästä/koillisesta
Näkyvyys 10 km tai enemmän
ei pilviä alle 1500 m:ssä eikä cumulonimbus-pilviä
Tulossa
26. päivästä klo 09 UTC - 26. päivään klo 11 UTC
Tuuli 7 kn lännestä

TAF: HECA 260500Z 2606/2712 07010KT CAVOK BECMG 2609/2611 27007KT

Säähavainnot ja -ennusteet yli 4000 lentoasemalta (METAR- ja TAF-raportit).

Käytössä olevat sääasemat on merkitty karttaan keltaisilla ja punaisilla pisteillä.

Aseta hiiri pisteen päälle nähdäksesi sääaseman nimen.

Klikkaa sitten nähdäksesi säähavainnot ja -ennusteet.

Kartan vaihtaminen: klikkaa mustalla rastilla varustettuja vihreitä pisteitä, niin voit zoomata sisään; viivalla varustettua vihreää pistettä, niin voit zoomata ulos tai vihreitä nuolia, niin pääset viereisille kartoille.


METAR-TAF: